METAR Data

Data at: 1851 UTC 21 Nov 2018

METAR for:CYZX (Greenwood (Mil), NS, CN)
Text:CYZX 211806Z 23013G18KT 15SM SCT022 BKN050 02/00 A2976 RMK SC3SC3 SLP080
Temperature: 2.0°C ( 36°F)
Dewpoint: 0.0°C ( 32°F) [RH = 87%]
Pressure (altimeter):29.76 inches Hg (1007.9 mb) [Sea level pressure: 1008.0 mb]
Winds:from the SW (230 degrees) at 15 MPH (13 knots; 6.7 m/s) gusting to 21 MPH (18 knots; 9.3 m/s)
Visibility: 15 sm ( 24 km)
Ceiling:5000 feet AGL
Clouds: scattered clouds at 2200 feet AGL, broken clouds at 5000 feet AGL